Daisinmaru No.11 — JK5352 — position and weather

sailwx.info

Track history (hours):
 
Tides and Currents Weather Stations Pressure Air Temp Water Temp Dewpoint Dewpoint Depression Visibility Wind Speed Wind Dir Waves Ship Positions

Daisinmaru No.11

Last reported at 2016-Feb-10 04:33 UTC. Time now 2016-Feb-11 17:08 UTC.
Position N 35°27' E 139°59'.

Length 52 m; draft 5.2 m.

Type: Cargo ship. MMSI: 431000667.

Date/timePositionNaut miles runAvg speedWind from/ knotsBaromVisibWave heightAir tempDewpointWater temp
2016-Feb-10 04:33N 35°27' E 139°59'0 0.5
2016-Feb-10 03:34N 35°27' E 139°60'2 2.5
2016-Feb-10 02:33N 35°29' E 139°57'10 9.8
2016-Feb-10 01:34N 35°30' E 139°46'3 2.6
2016-Feb-10 00:34N 35°29' E 139°43'0 0.0
2016-Feb-09 23:34N 35°29' E 139°43'2 1.6
2016-Feb-09 22:34N 35°30' E 139°44'1010.3
2016-Feb-09 21:34N 35°29' E 139°57'3 2.6
2016-Feb-09 20:33N 35°27' E 139°59'0 0.0
2016-Feb-09 00:33N 35°27' E 139°59'0 0.0
2016-Feb-08 23:33N 35°27' E 139°59'0 0.0
2016-Feb-08 00:29N 35°27' E 139°59'0 0.0
2016-Feb-07 23:33N 35°27' E 139°59'0 0.0
2016-Feb-06 05:33N 35°27' E 139°59'0 0.5
2016-Feb-06 04:33N 35°27' E 139°60'0 0.0
2016-Feb-06 03:33N 35°27' E 139°60'7 7.1
2016-Feb-06 02:33N 35°30' E 139°52'7 7.2
2016-Feb-06 01:33N 35°29' E 139°43'0 0.0
2016-Feb-06 00:33N 35°29' E 139°43'0 0.0
2016-Feb-05 23:33N 35°29' E 139°43'1 1.4
2016-Feb-05 22:33N 35°30' E 139°44'1010.1
2016-Feb-05 21:33N 35°29' E 139°57'3 0.1
2016-Feb-04 04:33N 35°28' E 139°60'0 0.4
2016-Feb-04 03:33N 35°27' E 139°60'3 3.5
2016-Feb-04 02:33N 35°29' E 139°56'9 9.3
2016-Feb-04 01:33N 35°30' E 139°45'2 1.8
2016-Feb-04 00:33N 35°29' E 139°43'0 0.0
2016-Feb-03 23:33N 35°29' E 139°43'1 1.5
2016-Feb-03 22:33N 35°30' E 139°44'10 9.8
2016-Feb-03 21:33N 35°29' E 139°56'3 0.1
2016-Feb-02 05:23N 35°28' E 139°60'0 0.4
2016-Feb-02 04:33N 35°27' E 139°60'0 0.1
2016-Feb-02 03:33N 35°27' E 139°60'6 6.4
2016-Feb-02 02:33N 35°30' E 139°52'8 7.7
2016-Feb-02 01:33N 35°29' E 139°43'0 0.0
2016-Feb-02 00:33N 35°29' E 139°43'0 0.0
2016-Feb-01 23:33N 35°29' E 139°43'4 3.8
2016-Feb-01 22:33N 35°30' E 139°47'1010.2
2016-Feb-01 21:33N 35°28' E 139°59'1 0.0
2016-Feb-01 00:18N 35°27' E 139°59'0 0.0
2016-Jan-31 23:33N 35°27' E 139°59'  
Track history (hours):
 
Tides and Currents Weather Stations Pressure Air Temp Water Temp Dewpoint Dewpoint Depression Visibility Wind Speed Wind Dir Waves Ship Positions

Daisinmaru No.11

Last reported at 2016-Feb-10 04:33 UTC. Time now 2016-Feb-11 17:08 UTC.
Position N 35°27' E 139°59'.

Length 52 m; draft 5.2 m.

Type: Cargo ship. MMSI: 431000667.

Date/timePositionNaut miles runAvg speedWind from/ knotsBaromVisibWave heightAir tempDewpointWater temp
2016-Feb-10 04:33N 35°27' E 139°59'0 0.5
2016-Feb-10 03:34N 35°27' E 139°60'2 2.5
2016-Feb-10 02:33N 35°29' E 139°57'10 9.8
2016-Feb-10 01:34N 35°30' E 139°46'3 2.6
2016-Feb-10 00:34N 35°29' E 139°43'0 0.0
2016-Feb-09 23:34N 35°29' E 139°43'2 1.6
2016-Feb-09 22:34N 35°30' E 139°44'1010.3
2016-Feb-09 21:34N 35°29' E 139°57'3 2.6
2016-Feb-09 20:33N 35°27' E 139°59'0 0.0
2016-Feb-09 00:33N 35°27' E 139°59'0 0.0
2016-Feb-08 23:33N 35°27' E 139°59'0 0.0
2016-Feb-08 00:29N 35°27' E 139°59'0 0.0
2016-Feb-07 23:33N 35°27' E 139°59'0 0.0
2016-Feb-06 05:33N 35°27' E 139°59'0 0.5
2016-Feb-06 04:33N 35°27' E 139°60'0 0.0
2016-Feb-06 03:33N 35°27' E 139°60'7 7.1
2016-Feb-06 02:33N 35°30' E 139°52'7 7.2
2016-Feb-06 01:33N 35°29' E 139°43'0 0.0
2016-Feb-06 00:33N 35°29' E 139°43'0 0.0
2016-Feb-05 23:33N 35°29' E 139°43'1 1.4
2016-Feb-05 22:33N 35°30' E 139°44'1010.1
2016-Feb-05 21:33N 35°29' E 139°57'3 0.1
2016-Feb-04 04:33N 35°28' E 139°60'0 0.4
2016-Feb-04 03:33N 35°27' E 139°60'3 3.5
2016-Feb-04 02:33N 35°29' E 139°56'9 9.3
2016-Feb-04 01:33N 35°30' E 139°45'2 1.8
2016-Feb-04 00:33N 35°29' E 139°43'0 0.0
2016-Feb-03 23:33N 35°29' E 139°43'1 1.5
2016-Feb-03 22:33N 35°30' E 139°44'10 9.8
2016-Feb-03 21:33N 35°29' E 139°56'3 0.1
2016-Feb-02 05:23N 35°28' E 139°60'0 0.4
2016-Feb-02 04:33N 35°27' E 139°60'0 0.1
2016-Feb-02 03:33N 35°27' E 139°60'6 6.4
2016-Feb-02 02:33N 35°30' E 139°52'8 7.7
2016-Feb-02 01:33N 35°29' E 139°43'0 0.0
2016-Feb-02 00:33N 35°29' E 139°43'0 0.0
2016-Feb-01 23:33N 35°29' E 139°43'4 3.8
2016-Feb-01 22:33N 35°30' E 139°47'1010.2
2016-Feb-01 21:33N 35°28' E 139°59'1 0.0
2016-Feb-01 00:18N 35°27' E 139°59'0 0.0
2016-Jan-31 23:33N 35°27' E 139°59'  

Dump ship's entire track history